Time;durP1;ratioP1;P1;durP2;ratioP2;P2;SDS_P1;SDS_P2;PMS_P1;PMS_P2;Temp;Humidity;BMP_temperature;BMP_pressure;BME280_temperature;BME280_humidity;BME280_pressure;Samples;Min_cycle;Max_cycle;Signal;HPM_P1;HPM_P2
2023/01/21 00:01:45;;;;;;;;;;;0.20;99.90;;;;;;5018071;28;20391;-75
2023/01/21 00:04:11;;;;;;;;;;;0.30;99.90;;;;;;5013186;28;19913;-76
2023/01/21 00:06:37;;;;;;;;;;;0.10;99.90;;;;;;5011636;28;19914;-75
2023/01/21 00:09:03;;;;;;;;;;;0.20;99.90;;;;;;5017564;28;19913;-75
2023/01/21 00:11:28;;;;;;;;;;;0.40;99.90;;;;;;5019461;28;20000;-75
2023/01/21 00:13:54;;;;;;;;;;;0.30;99.90;;;;;;5019306;28;19936;-75
2023/01/21 00:16:19;;;;;;;;;;;0.30;99.90;;;;;;5012389;28;19914;-75
2023/01/21 00:18:48;;;;;;;;;;;0.40;99.90;;;;;;5014783;28;19920;-74
2023/01/21 00:21:14;;;;;;;;;;;0.30;99.90;;;;;;5016353;28;20003;-75
2023/01/21 00:23:39;;;;;;;;;;;0.30;99.90;;;;;;5016136;28;19960;-74
2023/01/21 00:26:06;;;;;;;;;;;0.30;99.90;;;;;;5017875;28;20028;-75
2023/01/21 00:28:32;;;;;;;;;;;0.30;99.90;;;;;;5015955;28;19920;-75
2023/01/21 00:30:59;;;;;;;;;;;0.10;99.90;;;;;;5021388;28;19913;-75
2023/01/21 00:33:25;;;;;;;;;;;0.20;99.90;;;;;;5019213;28;20263;-74
2023/01/21 00:36:01;;;;;;;;;;;0.20;99.90;;;;;;5023403;28;19909;-75
2023/01/21 00:38:26;;;;;;;;;;;0.30;99.90;;;;;;5022409;28;20004;-75
2023/01/21 00:40:57;;;;;;;;;;;0.30;99.90;;;;;;5019880;28;20004;-75
2023/01/21 00:43:23;;;;;;;;;;;0.40;99.90;;;;;;5017668;28;19905;-75
2023/01/21 00:45:48;;;;;;;;;;;0.40;99.90;;;;;;5019384;28;20364;-75
2023/01/21 00:48:14;;;;;;;;;;;0.60;99.90;;;;;;5021528;28;19919;-75
2023/01/21 00:50:40;;;;;;;;;;;0.50;99.90;;;;;;5018596;28;19928;-75
2023/01/21 00:53:05;;;;;;;;;;;0.50;99.90;;;;;;5013633;28;20717;-75
2023/01/21 00:55:31;;;;;;;;;;;0.60;99.90;;;;;;5019051;28;20383;-75
2023/01/21 00:57:56;;;;;;;;;;;0.60;99.90;;;;;;5010638;28;19910;-74
2023/01/21 01:00:22;;;;;;;;;;;0.60;99.90;;;;;;5018764;28;19989;-75
2023/01/21 01:02:47;;;;;;;;;;;0.60;99.90;;;;;;5015934;28;19913;-75
2023/01/21 01:05:13;;;;;;;;;;;0.70;99.90;;;;;;5021721;28;19924;-74
2023/01/21 01:07:42;;;;;;;;;;;0.40;99.90;;;;;;5020715;28;19956;-74
2023/01/21 01:10:08;;;;;;;;;;;0.40;99.90;;;;;;5024459;28;20059;-74
2023/01/21 01:12:34;;;;;;;;;;;0.50;99.90;;;;;;5024405;28;19912;-74
2023/01/21 01:14:59;;;;;;;;;;;0.50;99.90;;;;;;5019167;28;19910;-76
2023/01/21 01:17:25;;;;;;;;;;;0.50;99.90;;;;;;5019097;28;19936;-74
2023/01/21 01:19:50;;;;;;;;;;;0.50;99.90;;;;;;5013305;28;19939;-74
2023/01/21 01:22:16;;;;;;;;;;;0.60;99.90;;;;;;5023009;28;19913;-74
2023/01/21 01:24:42;;;;;;;;;;;0.50;99.90;;;;;;5019779;28;19905;-75
2023/01/21 01:27:07;;;;;;;;;;;0.40;99.90;;;;;;5012498;28;20698;-75
2023/01/21 01:29:33;;;;;;;;;;;0.40;99.90;;;;;;5018228;28;19917;-76
2023/01/21 01:31:58;;;;;;;;;;;0.70;99.90;;;;;;5007535;28;19949;-76
2023/01/21 01:34:24;;;;;;;;;;;0.70;99.90;;;;;;5020587;28;20759;-76
2023/01/21 01:36:49;;;;;;;;;;;0.70;99.90;;;;;;5006708;28;19909;-76
2023/01/21 01:39:15;;;;;;;;;;;0.70;99.90;;;;;;5007941;28;19932;-75
2023/01/21 01:41:41;;;;;;;;;;;0.70;99.90;;;;;;5025049;28;19909;-75
2023/01/21 01:44:25;;;;;;;;;;;0.50;99.90;;;;;;5013008;28;19916;-75
2023/01/21 01:46:50;;;;;;;;;;;0.50;99.90;;;;;;5009293;28;19909;-75
2023/01/21 01:49:18;;;;;;;;;;;0.30;99.90;;;;;;4994293;28;19939;-75
2023/01/21 01:51:46;;;;;;;;;;;0.10;99.90;;;;;;5018455;28;19909;-76
2023/01/21 01:54:13;;;;;;;;;;;0.00;99.90;;;;;;5010682;28;20003;-75
2023/01/21 01:56:41;;;;;;;;;;;-0.30;99.90;;;;;;5011405;28;19909;-76
2023/01/21 01:59:07;;;;;;;;;;;-0.30;99.90;;;;;;5002045;28;19925;-75
2023/01/21 02:01:33;;;;;;;;;;;-0.30;99.90;;;;;;5023997;28;19909;-76
2023/01/21 02:04:00;;;;;;;;;;;-0.20;99.90;;;;;;5025547;28;19909;-76
2023/01/21 02:06:26;;;;;;;;;;;0.10;99.90;;;;;;5022493;28;19912;-75
2023/01/21 02:08:52;;;;;;;;;;;0.40;99.90;;;;;;5013880;28;20100;-74
2023/01/21 02:11:18;;;;;;;;;;;0.30;99.90;;;;;;5012827;28;19932;-75
2023/01/21 02:13:47;;;;;;;;;;;0.30;99.90;;;;;;5020109;28;19955;-74
2023/01/21 02:16:19;;;;;;;;;;;0.20;99.90;;;;;;5015429;28;19917;-75
2023/01/21 02:18:47;;;;;;;;;;;0.30;99.90;;;;;;5004202;28;19917;-74
2023/01/21 02:21:25;;;;;;;;;;;0.20;99.90;;;;;;5021595;28;19909;-75
2023/01/21 02:24:09;;;;;;;;;;;0.30;99.90;;;;;;5014777;28;20810;-74
2023/01/21 02:26:59;;;;;;;;;;;0.40;99.90;;;;;;5020623;28;19939;-75
2023/01/21 02:29:28;;;;;;;;;;;0.60;99.90;;;;;;4989126;28;19924;-75
2023/01/21 02:31:59;;;;;;;;;;;0.70;99.90;;;;;;5014069;28;19905;-74
2023/01/21 02:34:25;;;;;;;;;;;0.80;99.90;;;;;;5005669;28;19909;-74
2023/01/21 02:36:58;;;;;;;;;;;0.70;99.90;;;;;;5006132;28;19909;-74
2023/01/21 02:39:33;;;;;;;;;;;0.80;99.90;;;;;;4996295;28;19905;-74
2023/01/21 02:42:06;;;;;;;;;;;0.80;99.90;;;;;;5024488;28;19962;-75
2023/01/21 02:44:38;;;;;;;;;;;0.80;99.90;;;;;;5017553;28;20506;-74
2023/01/21 02:47:23;;;;;;;;;;;0.80;99.90;;;;;;5012699;28;19912;-75
2023/01/21 02:49:54;;;;;;;;;;;0.60;99.90;;;;;;5005773;28;19953;-75
2023/01/21 02:52:21;;;;;;;;;;;0.60;99.90;;;;;;5023921;28;20651;-75
2023/01/21 02:54:57;;;;;;;;;;;0.60;99.90;;;;;;5008269;28;19909;-75
2023/01/21 02:57:41;;;;;;;;;;;0.30;99.90;;;;;;5020563;28;19914;-74
2023/01/21 03:00:12;;;;;;;;;;;0.10;99.90;;;;;;5015980;28;19925;-75
2023/01/21 03:02:43;;;;;;;;;;;0.20;99.90;;;;;;5023467;28;19920;-75
2023/01/21 03:05:11;;;;;;;;;;;0.20;99.90;;;;;;5004601;28;20293;-75
2023/01/21 03:07:43;;;;;;;;;;;0.40;99.90;;;;;;5016506;28;19911;-76
2023/01/21 03:10:27;;;;;;;;;;;0.40;99.90;;;;;;5004598;28;19917;-76
2023/01/21 03:12:52;;;;;;;;;;;0.30;99.90;;;;;;5020001;28;19918;-76
2023/01/21 03:18:05;;;;;;;;;;;0.30;99.90;;;;;;5019111;28;20666;-75
2023/01/21 03:20:36;;;;;;;;;;;0.50;99.90;;;;;;5015602;28;19940;-75
2023/01/21 03:23:04;;;;;;;;;;;0.50;99.90;;;;;;5014000;28;19914;-75
2023/01/21 03:25:31;;;;;;;;;;;0.20;99.90;;;;;;5020815;28;19943;-75
2023/01/21 03:27:58;;;;;;;;;;;0.20;99.90;;;;;;5019378;28;19955;-75
2023/01/21 03:30:24;;;;;;;;;;;0.30;99.90;;;;;;5001804;28;19967;-75
2023/01/21 03:32:50;;;;;;;;;;;0.30;99.90;;;;;;5015364;28;20419;-75
2023/01/21 03:35:19;;;;;;;;;;;0.40;99.90;;;;;;5016572;28;20002;-75
2023/01/21 03:37:56;;;;;;;;;;;0.60;99.90;;;;;;5014483;28;20748;-75
2023/01/21 03:40:24;;;;;;;;;;;0.50;99.90;;;;;;5020574;28;20571;-75
2023/01/21 03:42:51;;;;;;;;;;;0.50;99.90;;;;;;4997742;28;20807;-76
2023/01/21 03:45:20;;;;;;;;;;;0.40;99.90;;;;;;5009997;28;19913;-76
2023/01/21 03:47:51;;;;;;;;;;;0.50;99.90;;;;;;5011907;28;19952;-75
2023/01/21 03:50:22;;;;;;;;;;;0.40;99.90;;;;;;5013745;28;19925;-75
2023/01/21 03:52:48;;;;;;;;;;;0.40;99.90;;;;;;5021665;28;19913;-75
2023/01/21 03:55:15;;;;;;;;;;;0.60;99.90;;;;;;5016884;28;20315;-75
2023/01/21 03:57:40;;;;;;;;;;;0.40;99.90;;;;;;5023280;28;19909;-75
2023/01/21 04:00:06;;;;;;;;;;;0.30;99.90;;;;;;5022928;28;19931;-75
2023/01/21 04:02:32;;;;;;;;;;;0.30;99.90;;;;;;5023551;28;19909;-75
2023/01/21 04:04:57;;;;;;;;;;;0.30;99.90;;;;;;5017517;28;19913;-75
2023/01/21 04:07:23;;;;;;;;;;;0.40;99.90;;;;;;5017674;28;20342;-75
2023/01/21 04:09:49;;;;;;;;;;;0.50;99.90;;;;;;5018736;28;19917;-75
2023/01/21 04:12:15;;;;;;;;;;;0.70;99.90;;;;;;5017588;28;19909;-76
2023/01/21 04:14:40;;;;;;;;;;;0.50;99.90;;;;;;5023225;28;19909;-76
2023/01/21 04:17:06;;;;;;;;;;;0.50;99.90;;;;;;5012403;28;19963;-75
2023/01/21 04:19:32;;;;;;;;;;;0.50;99.90;;;;;;5018332;28;19984;-75
2023/01/21 04:21:57;;;;;;;;;;;0.50;99.90;;;;;;5011885;28;20047;-75
2023/01/21 04:24:23;;;;;;;;;;;0.40;99.90;;;;;;5020567;28;19909;-75
2023/01/21 04:26:49;;;;;;;;;;;0.50;99.90;;;;;;5023313;28;19905;-75
2023/01/21 04:29:14;;;;;;;;;;;0.50;99.90;;;;;;5006684;28;20351;-76
2023/01/21 04:31:40;;;;;;;;;;;0.50;99.90;;;;;;5023179;28;19909;-75
2023/01/21 04:34:05;;;;;;;;;;;0.60;99.90;;;;;;5005292;28;20007;-75
2023/01/21 04:36:31;;;;;;;;;;;0.50;99.90;;;;;;5015034;28;19966;-75
2023/01/21 04:38:56;;;;;;;;;;;0.40;99.90;;;;;;5016633;28;19909;-76
2023/01/21 04:41:22;;;;;;;;;;;0.30;99.90;;;;;;5019618;28;19905;-75
2023/01/21 04:43:48;;;;;;;;;;;0.50;99.90;;;;;;5022506;28;20003;-75
2023/01/21 04:46:13;;;;;;;;;;;0.50;99.90;;;;;;5010277;28;19959;-76
2023/01/21 04:48:39;;;;;;;;;;;0.40;99.90;;;;;;5016137;28;19909;-75
2023/01/21 04:51:05;;;;;;;;;;;0.30;99.90;;;;;;5015229;28;19917;-76
2023/01/21 04:53:30;;;;;;;;;;;0.30;99.90;;;;;;5008980;28;19909;-76
2023/01/21 04:55:56;;;;;;;;;;;0.10;99.90;;;;;;5011964;28;19983;-75
2023/01/21 04:58:22;;;;;;;;;;;0.20;99.90;;;;;;5011748;28;19963;-76
2023/01/21 05:00:48;;;;;;;;;;;0.20;99.90;;;;;;5018461;28;20376;-76
2023/01/21 05:03:13;;;;;;;;;;;0.40;99.90;;;;;;5011714;28;19917;-75
2023/01/21 05:05:39;;;;;;;;;;;0.40;99.90;;;;;;5021063;28;19956;-76
2023/01/21 05:08:05;;;;;;;;;;;0.30;99.90;;;;;;5020090;28;19913;-76
2023/01/21 05:10:30;;;;;;;;;;;0.20;99.90;;;;;;5016498;28;20817;-76
2023/01/21 05:12:57;;;;;;;;;;;0.10;99.90;;;;;;5008421;28;19988;-76
2023/01/21 05:15:22;;;;;;;;;;;0.00;99.90;;;;;;5023923;28;19971;-77
2023/01/21 05:17:48;;;;;;;;;;;0.40;99.90;;;;;;5002020;28;20024;-76
2023/01/21 05:20:14;;;;;;;;;;;0.40;99.90;;;;;;5019402;28;19909;-76
2023/01/21 05:22:39;;;;;;;;;;;0.50;99.90;;;;;;5022435;28;20006;-76
2023/01/21 05:25:05;;;;;;;;;;;0.60;99.90;;;;;;5006155;28;20006;-76
2023/01/21 05:27:31;;;;;;;;;;;0.20;99.90;;;;;;5019542;28;19910;-76
2023/01/21 05:29:56;;;;;;;;;;;0.30;99.90;;;;;;5015943;28;20009;-77
2023/01/21 05:32:22;;;;;;;;;;;0.30;99.90;;;;;;5026049;28;19916;-76
2023/01/21 05:34:47;;;;;;;;;;;0.30;99.90;;;;;;5015657;28;19963;-76
2023/01/21 05:37:13;;;;;;;;;;;0.30;99.90;;;;;;5008039;28;19906;-76
2023/01/21 05:39:39;;;;;;;;;;;0.30;99.90;;;;;;5011437;28;19909;-76
2023/01/21 05:42:04;;;;;;;;;;;0.40;99.90;;;;;;5021964;28;19910;-77
2023/01/21 05:44:30;;;;;;;;;;;0.50;99.90;;;;;;5005996;28;19944;-77
2023/01/21 05:46:55;;;;;;;;;;;0.50;99.90;;;;;;5010145;28;19962;-75
2023/01/21 05:49:21;;;;;;;;;;;0.50;99.90;;;;;;5024224;28;19909;-75
2023/01/21 05:51:46;;;;;;;;;;;0.40;99.90;;;;;;5013994;28;19996;-75
2023/01/21 05:54:12;;;;;;;;;;;0.30;99.90;;;;;;5013388;28;19956;-75
2023/01/21 05:56:38;;;;;;;;;;;0.20;99.90;;;;;;5012706;28;20682;-75
2023/01/21 05:59:04;;;;;;;;;;;0.10;99.90;;;;;;5018127;28;19966;-75
2023/01/21 06:01:29;;;;;;;;;;;0.30;99.90;;;;;;5022305;28;19917;-75
2023/01/21 06:03:55;;;;;;;;;;;0.30;99.90;;;;;;5025161;28;19909;-75
2023/01/21 06:06:20;;;;;;;;;;;0.40;99.90;;;;;;5001271;28;19909;-76
2023/01/21 06:08:46;;;;;;;;;;;0.40;99.90;;;;;;5014336;28;19908;-74
2023/01/21 06:11:12;;;;;;;;;;;0.40;99.90;;;;;;5010169;28;19924;-75
2023/01/21 06:13:37;;;;;;;;;;;0.70;99.90;;;;;;5015041;28;19959;-76
2023/01/21 06:16:03;;;;;;;;;;;0.80;99.90;;;;;;5019167;28;19953;-77
2023/01/21 06:18:29;;;;;;;;;;;0.80;99.90;;;;;;5024804;28;19909;-77
2023/01/21 06:20:57;;;;;;;;;;;0.80;99.90;;;;;;5018747;28;19916;-77
2023/01/21 06:23:23;;;;;;;;;;;0.60;99.90;;;;;;5023975;28;19963;-76
2023/01/21 06:25:48;;;;;;;;;;;0.60;99.90;;;;;;5019534;28;19913;-75
2023/01/21 06:28:14;;;;;;;;;;;0.50;99.90;;;;;;5018397;28;19913;-75
2023/01/21 06:30:40;;;;;;;;;;;0.50;99.90;;;;;;5022226;28;19931;-75
2023/01/21 06:33:05;;;;;;;;;;;0.40;99.90;;;;;;5018406;28;19917;-76
2023/01/21 06:35:31;;;;;;;;;;;0.50;99.90;;;;;;5020086;28;19924;-76
2023/01/21 06:37:56;;;;;;;;;;;0.30;99.90;;;;;;5021640;28;20384;-76
2023/01/21 06:40:22;;;;;;;;;;;0.40;99.90;;;;;;5022299;28;19916;-76
2023/01/21 06:42:48;;;;;;;;;;;0.40;99.90;;;;;;5021172;28;20288;-76
2023/01/21 06:45:14;;;;;;;;;;;0.40;99.90;;;;;;5019264;28;19913;-76
2023/01/21 06:47:43;;;;;;;;;;;0.30;99.90;;;;;;5014031;28;19913;-76
2023/01/21 06:50:09;;;;;;;;;;;0.40;99.90;;;;;;5017252;28;20400;-76
2023/01/21 06:52:35;;;;;;;;;;;0.50;99.90;;;;;;5016331;28;19913;-75
2023/01/21 06:55:00;;;;;;;;;;;0.50;99.90;;;;;;5013305;28;20423;-74
2023/01/21 06:57:26;;;;;;;;;;;0.60;99.90;;;;;;5011922;28;19909;-75
2023/01/21 06:59:51;;;;;;;;;;;0.60;99.90;;;;;;5021699;28;20478;-76
2023/01/21 07:02:17;;;;;;;;;;;0.80;99.90;;;;;;5017327;28;19971;-75
2023/01/21 07:04:44;;;;;;;;;;;0.70;99.90;;;;;;5020955;28;19913;-76
2023/01/21 07:07:09;;;;;;;;;;;0.70;99.90;;;;;;5012448;28;20491;-76
2023/01/21 07:09:35;;;;;;;;;;;0.70;99.90;;;;;;5020853;28;19921;-76
2023/01/21 07:12:00;;;;;;;;;;;0.70;99.90;;;;;;5004592;28;20679;-75
2023/01/21 07:14:26;;;;;;;;;;;0.80;99.90;;;;;;5015976;28;19920;-75
2023/01/21 07:16:52;;;;;;;;;;;0.70;99.90;;;;;;4996842;28;20683;-77
2023/01/21 07:19:18;;;;;;;;;;;0.70;99.90;;;;;;5018893;28;19928;-76
2023/01/21 07:21:43;;;;;;;;;;;0.80;99.90;;;;;;5016590;28;19913;-77
2023/01/21 07:24:09;;;;;;;;;;;0.70;99.90;;;;;;5006693;28;19920;-76
2023/01/21 07:26:36;;;;;;;;;;;0.70;99.90;;;;;;5014885;28;19912;-76
2023/01/21 07:29:05;;;;;;;;;;;0.60;99.90;;;;;;5018819;28;20672;-76
2023/01/21 07:31:31;;;;;;;;;;;0.50;99.90;;;;;;5021104;28;19921;-76
2023/01/21 07:33:56;;;;;;;;;;;0.50;99.90;;;;;;5011464;28;19913;-76
2023/01/21 07:36:22;;;;;;;;;;;0.50;99.90;;;;;;5016400;28;20505;-76
2023/01/21 07:38:47;;;;;;;;;;;0.40;99.90;;;;;;5014086;28;19917;-77
2023/01/21 07:41:13;;;;;;;;;;;0.60;99.90;;;;;;5012148;28;19932;-76
2023/01/21 07:43:38;;;;;;;;;;;0.60;99.90;;;;;;5003740;28;19913;-76
2023/01/21 07:46:04;;;;;;;;;;;0.50;99.90;;;;;;5019753;28;19924;-76
2023/01/21 07:48:30;;;;;;;;;;;0.50;99.90;;;;;;5019961;28;19909;-76
2023/01/21 07:50:56;;;;;;;;;;;0.50;99.90;;;;;;5019125;28;19917;-76
2023/01/21 07:53:22;;;;;;;;;;;0.50;99.90;;;;;;5013235;28;19909;-76
2023/01/21 07:55:47;;;;;;;;;;;0.50;99.90;;;;;;5013523;28;19923;-76
2023/01/21 07:58:13;;;;;;;;;;;0.50;99.90;;;;;;5013753;28;20272;-76
2023/01/21 08:00:39;;;;;;;;;;;0.50;99.90;;;;;;5022601;28;19920;-75
2023/01/21 08:03:04;;;;;;;;;;;0.50;99.90;;;;;;5018770;28;19916;-76
2023/01/21 08:05:31;;;;;;;;;;;0.40;99.90;;;;;;5018046;28;19912;-76
2023/01/21 08:07:57;;;;;;;;;;;0.60;99.90;;;;;;5019917;28;19920;-75
2023/01/21 08:10:23;;;;;;;;;;;0.50;99.90;;;;;;5017721;28;19927;-76
2023/01/21 08:12:48;;;;;;;;;;;0.60;99.90;;;;;;5005193;28;20003;-76
2023/01/21 08:15:15;;;;;;;;;;;0.60;99.90;;;;;;5021714;28;19940;-76
2023/01/21 08:17:41;;;;;;;;;;;0.70;99.90;;;;;;5017662;28;19924;-76
2023/01/21 08:20:08;;;;;;;;;;;0.80;99.90;;;;;;5008621;28;19945;-77
2023/01/21 08:22:34;;;;;;;;;;;0.80;99.90;;;;;;5001016;28;19913;-77
2023/01/21 08:24:59;;;;;;;;;;;0.70;99.90;;;;;;5013348;28;19916;-75
2023/01/21 08:27:25;;;;;;;;;;;0.60;99.90;;;;;;5021674;28;19912;-76
2023/01/21 08:29:51;;;;;;;;;;;0.70;99.90;;;;;;5011591;28;19944;-76
2023/01/21 08:32:16;;;;;;;;;;;0.60;99.90;;;;;;5017981;28;19920;-76
2023/01/21 08:34:42;;;;;;;;;;;0.80;99.90;;;;;;5017010;28;19913;-76
2023/01/21 08:37:07;;;;;;;;;;;0.70;99.90;;;;;;5015093;28;19976;-76
2023/01/21 08:39:33;;;;;;;;;;;0.80;99.90;;;;;;5017138;28;19921;-76
2023/01/21 08:41:58;;;;;;;;;;;0.80;99.90;;;;;;5022062;28;19913;-76
2023/01/21 08:44:24;;;;;;;;;;;0.80;99.90;;;;;;5010513;28;19909;-76
2023/01/21 08:46:49;;;;;;;;;;;0.80;99.90;;;;;;5022689;28;20031;-76
2023/01/21 08:49:15;;;;;;;;;;;0.80;99.90;;;;;;5020259;28;19952;-75
2023/01/21 08:51:41;;;;;;;;;;;0.80;99.90;;;;;;5021587;28;19920;-75
2023/01/21 08:54:06;;;;;;;;;;;0.70;99.90;;;;;;5021255;28;19913;-75
2023/01/21 08:56:32;;;;;;;;;;;0.90;99.90;;;;;;5024837;28;19913;-75
2023/01/21 08:58:58;;;;;;;;;;;0.90;99.90;;;;;;5023576;28;19925;-76
2023/01/21 09:01:24;;;;;;;;;;;0.90;99.90;;;;;;5025152;28;20407;-76
2023/01/21 09:03:56;;;;;;;;;;;0.90;99.90;;;;;;5017050;28;19915;-77
2023/01/21 09:06:23;;;;;;;;;;;0.90;99.90;;;;;;5021345;28;19913;-76
2023/01/21 09:08:49;;;;;;;;;;;1.00;99.90;;;;;;5022264;28;19913;-75
2023/01/21 09:11:15;;;;;;;;;;;0.90;99.90;;;;;;5022365;28;20030;-75
2023/01/21 09:13:43;;;;;;;;;;;1.00;99.90;;;;;;5019578;28;19927;-76
2023/01/21 09:16:12;;;;;;;;;;;1.00;99.90;;;;;;5024573;28;19935;-76
2023/01/21 09:18:37;;;;;;;;;;;1.10;99.90;;;;;;5003964;28;20166;-76
2023/01/21 09:21:04;;;;;;;;;;;1.00;99.90;;;;;;5024231;28;19913;-76
2023/01/21 09:23:32;;;;;;;;;;;1.00;99.90;;;;;;5022205;28;19913;-77
2023/01/21 09:26:03;;;;;;;;;;;1.20;99.90;;;;;;5020448;28;19927;-76
2023/01/21 09:28:29;;;;;;;;;;;1.20;99.90;;;;;;5022578;28;19967;-76
2023/01/21 09:30:58;;;;;;;;;;;1.20;99.90;;;;;;5018290;28;20002;-76
2023/01/21 09:33:24;;;;;;;;;;;1.50;99.90;;;;;;5021196;28;19918;-76
2023/01/21 09:35:53;;;;;;;;;;;1.50;99.90;;;;;;5016329;28;19920;-77
2023/01/21 09:38:19;;;;;;;;;;;1.70;99.90;;;;;;5021539;28;19960;-77
2023/01/21 09:40:44;;;;;;;;;;;1.90;99.90;;;;;;5023448;28;20785;-76
2023/01/21 09:43:13;;;;;;;;;;;1.90;99.90;;;;;;5018690;28;19915;-76
2023/01/21 09:45:40;;;;;;;;;;;1.90;99.90;;;;;;5022711;28;19913;-75
2023/01/21 09:48:06;;;;;;;;;;;1.90;99.90;;;;;;5021452;28;19917;-76
2023/01/21 09:50:33;;;;;;;;;;;1.90;99.90;;;;;;5019932;28;19925;-75
2023/01/21 09:53:17;;;;;;;;;;;2.10;99.90;;;;;;5024027;28;19916;-76
2023/01/21 09:55:46;;;;;;;;;;;2.10;99.90;;;;;;5020504;28;19958;-76
2023/01/21 09:58:21;;;;;;;;;;;2.20;99.90;;;;;;5020190;28;19917;-75
2023/01/21 10:00:59;;;;;;;;;;;2.10;99.90;;;;;;5023977;28;19968;-76
2023/01/21 10:03:30;;;;;;;;;;;2.40;99.90;;;;;;5024019;28;19975;-76
2023/01/21 10:06:08;;;;;;;;;;;2.70;99.90;;;;;;5024208;28;19920;-75
2023/01/21 10:08:43;;;;;;;;;;;2.80;99.90;;;;;;5014267;28;19916;-77
2023/01/21 10:11:11;;;;;;;;;;;3.00;99.90;;;;;;5022458;28;19925;-74
2023/01/21 10:13:45;;;;;;;;;;;2.80;99.90;;;;;;5011281;28;19913;-75
2023/01/21 10:16:20;;;;;;;;;;;2.80;99.90;;;;;;5022106;28;19912;-76
2023/01/21 10:18:47;;;;;;;;;;;2.50;99.90;;;;;;5021338;28;19916;-75
2023/01/21 10:21:18;;;;;;;;;;;2.10;99.90;;;;;;5007463;28;19924;-76
2023/01/21 10:23:46;;;;;;;;;;;1.80;99.90;;;;;;5019050;28;20410;-75
2023/01/21 10:26:12;;;;;;;;;;;2.50;99.90;;;;;;5023586;28;20233;-75
2023/01/21 10:28:39;;;;;;;;;;;3.30;99.90;;;;;;5016052;28;19913;-76
2023/01/21 10:31:17;;;;;;;;;;;3.60;99.90;;;;;;5015928;28;19917;-76
2023/01/21 10:33:42;;;;;;;;;;;3.50;99.90;;;;;;5018317;28;19920;-75
2023/01/21 10:36:11;;;;;;;;;;;3.90;99.90;;;;;;5016865;28;19917;-76
2023/01/21 10:38:36;;;;;;;;;;;4.00;99.90;;;;;;5016864;28;19913;-76
2023/01/21 10:41:21;;;;;;;;;;;4.10;99.90;;;;;;5020487;28;19920;-76
2023/01/21 10:43:51;;;;;;;;;;;4.20;99.90;;;;;;5014127;28;19921;-76
2023/01/21 10:46:37;;;;;;;;;;;4.20;99.90;;;;;;5016682;28;19913;-76
2023/01/21 10:49:21;;;;;;;;;;;3.50;99.90;;;;;;5015221;28;19913;-76
2023/01/21 10:51:54;;;;;;;;;;;3.70;99.90;;;;;;5015128;28;20385;-75
2023/01/21 10:54:30;;;;;;;;;;;3.80;99.90;;;;;;5018168;28;19919;-76
2023/01/21 10:57:05;;;;;;;;;;;3.70;99.90;;;;;;5012782;28;19909;-76
2023/01/21 10:59:32;;;;;;;;;;;3.80;99.90;;;;;;5023095;28;20019;-76
2023/01/21 11:02:04;;;;;;;;;;;4.10;99.90;;;;;;5016240;28;20068;-76
2023/01/21 11:04:30;;;;;;;;;;;4.70;99.90;;;;;;5017478;28;19905;-76
2023/01/21 11:07:07;;;;;;;;;;;5.10;99.90;;;;;;5015243;28;19916;-76
2023/01/21 11:09:37;;;;;;;;;;;5.30;99.90;;;;;;5022163;28;20265;-76
2023/01/21 11:12:03;;;;;;;;;;;5.00;99.90;;;;;;5008533;28;19905;-76
2023/01/21 11:14:28;;;;;;;;;;;4.60;99.90;;;;;;5012504;28;19909;-75
2023/01/21 11:16:54;;;;;;;;;;;4.10;99.90;;;;;;5009356;28;20008;-76
2023/01/21 11:19:22;;;;;;;;;;;3.90;99.90;;;;;;5021700;28;19909;-75
2023/01/21 11:22:07;;;;;;;;;;;4.30;99.90;;;;;;5017175;28;19909;-76
2023/01/21 11:24:43;;;;;;;;;;;4.40;99.90;;;;;;5015013;28;19908;-76
2023/01/21 11:27:17;;;;;;;;;;;4.50;99.90;;;;;;5017179;28;19913;-76
2023/01/21 11:29:43;;;;;;;;;;;4.20;99.90;;;;;;5015616;28;19970;-76
2023/01/21 11:32:28;;;;;;;;;;;4.00;99.90;;;;;;5009270;28;19927;-76
2023/01/21 11:35:00;;;;;;;;;;;3.80;99.90;;;;;;5007694;28;19921;-75
2023/01/21 11:37:27;;;;;;;;;;;3.80;99.90;;;;;;5011377;28;20008;-76
2023/01/21 11:39:55;;;;;;;;;;;3.80;99.90;;;;;;5021658;28;19963;-75
2023/01/21 11:42:21;;;;;;;;;;;3.80;99.90;;;;;;5018152;28;19927;-76
2023/01/21 11:44:51;;;;;;;;;;;3.90;99.90;;;;;;5002179;28;19909;-76
2023/01/21 11:47:27;;;;;;;;;;;3.80;99.90;;;;;;5021556;28;19909;-76
2023/01/21 11:49:53;;;;;;;;;;;4.00;99.90;;;;;;5015358;28;19920;-76
2023/01/21 11:52:19;;;;;;;;;;;4.30;99.90;;;;;;5012538;28;20402;-76
2023/01/21 11:54:45;;;;;;;;;;;4.80;99.90;;;;;;5022940;28;19995;-76
2023/01/21 11:57:19;;;;;;;;;;;5.40;99.90;;;;;;5017556;28;19915;-76
2023/01/21 11:59:46;;;;;;;;;;;4.80;99.90;;;;;;5017029;28;19925;-76
2023/01/21 12:02:28;;;;;;;;;;;4.50;99.90;;;;;;5017067;28;19924;-76
2023/01/21 12:04:59;;;;;;;;;;;4.50;99.90;;;;;;5008057;28;19916;-76
2023/01/21 12:07:27;;;;;;;;;;;4.20;99.90;;;;;;5016181;28;20007;-76
2023/01/21 12:10:06;;;;;;;;;;;4.30;99.90;;;;;;5003701;28;19941;-76
2023/01/21 12:12:45;;;;;;;;;;;4.20;99.90;;;;;;5012731;28;19952;-76
2023/01/21 12:15:33;;;;;;;;;;;4.20;99.90;;;;;;5020031;28;20671;-76
2023/01/21 12:18:18;;;;;;;;;;;3.90;99.90;;;;;;4995783;28;19917;-76
2023/01/21 12:20:43;;;;;;;;;;;4.00;99.90;;;;;;5019073;28;20415;-76
2023/01/21 12:23:25;;;;;;;;;;;4.10;99.90;;;;;;5009712;28;20092;-76
2023/01/21 12:26:00;;;;;;;;;;;4.20;99.90;;;;;;5025831;28;19920;-76
2023/01/21 12:28:39;;;;;;;;;;;4.20;99.90;;;;;;5025269;28;19917;-76
2023/01/21 12:31:22;;;;;;;;;;;4.20;99.60;;;;;;5022299;28;19921;-76
2023/01/21 12:33:59;;;;;;;;;;;4.30;99.90;;;;;;5023308;28;19917;-76
2023/01/21 12:36:45;;;;;;;;;;;4.60;98.70;;;;;;5023478;28;20640;-76
2023/01/21 12:39:15;;;;;;;;;;;4.60;98.10;;;;;;5022026;28;19919;-76
2023/01/21 12:41:41;;;;;;;;;;;4.50;98.30;;;;;;5022739;28;19913;-76
2023/01/21 12:44:26;;;;;;;;;;;4.60;95.50;;;;;;5022419;28;19994;-76
2023/01/21 12:46:53;;;;;;;;;;;4.70;96.10;;;;;;5021476;28;19955;-76
2023/01/21 12:49:28;;;;;;;;;;;5.10;96.00;;;;;;5023500;28;19917;-76
2023/01/21 12:52:08;;;;;;;;;;;5.00;96.20;;;;;;5018591;28;19922;-76
2023/01/21 12:54:56;;;;;;;;;;;4.60;97.20;;;;;;5020064;28;20364;-76
2023/01/21 12:57:27;;;;;;;;;;;4.10;96.70;;;;;;5021953;28;19919;-76
2023/01/21 13:00:02;;;;;;;;;;;3.70;96.10;;;;;;5023399;28;19924;-76
2023/01/21 13:02:51;;;;;;;;;;;3.60;96.10;;;;;;5022456;28;20024;-76
2023/01/21 13:05:26;;;;;;;;;;;3.40;94.20;;;;;;4998251;28;19913;-76
2023/01/21 13:08:11;;;;;;;;;;;3.40;93.10;;;;;;5024026;28;20024;-76
2023/01/21 13:10:42;;;;;;;;;;;3.80;92.30;;;;;;5022588;28;19921;-76
2023/01/21 13:13:37;;;;;;;;;;;4.10;90.60;;;;;;5004348;28;20004;-76
2023/01/21 13:16:06;;;;;;;;;;;4.40;91.60;;;;;;5008619;28;19920;-76
2023/01/21 13:18:36;;;;;;;;;;;4.10;91.10;;;;;;5019924;28;20296;-76
2023/01/21 13:21:08;;;;;;;;;;;3.80;88.80;;;;;;5021842;28;19940;-76
2023/01/21 13:23:45;;;;;;;;;;;3.80;92.10;;;;;;5011885;28;20391;-76
2023/01/21 13:26:14;;;;;;;;;;;4.10;91.30;;;;;;5016450;28;19971;-76
2023/01/21 13:28:46;;;;;;;;;;;3.90;91.30;;;;;;5025322;28;19913;-77
2023/01/21 13:31:15;;;;;;;;;;;3.80;91.30;;;;;;4991835;28;19925;-76
2023/01/21 13:33:43;;;;;;;;;;;3.50;90.80;;;;;;5011498;28;19920;-80
2023/01/21 13:36:27;;;;;;;;;;;3.20;90.50;;;;;;5022867;28;19920;-78
2023/01/21 13:38:56;;;;;;;;;;;3.10;90.50;;;;;;5014413;28;19905;-79
2023/01/21 13:41:22;;;;;;;;;;;3.30;91.70;;;;;;5019717;28;19964;-80
2023/01/21 13:43:54;;;;;;;;;;;3.40;91.10;;;;;;5022991;28;19966;-79
2023/01/21 13:46:22;;;;;;;;;;;3.10;90.50;;;;;;5024929;28;19912;-79
2023/01/21 13:49:03;;;;;;;;;;;3.40;91.90;;;;;;5022546;28;19921;-79
2023/01/21 13:51:49;;;;;;;;;;;3.40;91.30;;;;;;5024481;28;20319;-78
2023/01/21 13:54:41;;;;;;;;;;;3.50;90.90;;;;;;5019413;28;19914;-78
2023/01/21 13:57:17;;;;;;;;;;;3.20;91.30;;;;;;5018085;28;19956;-81
2023/01/21 13:59:52;;;;;;;;;;;3.50;91.80;;;;;;5015846;28;19968;-79
2023/01/21 14:02:23;;;;;;;;;;;3.40;91.80;;;;;;5012622;28;19909;-79
2023/01/21 14:04:48;;;;;;;;;;;3.50;92.70;;;;;;5022944;28;19947;-80
2023/01/21 14:07:14;;;;;;;;;;;3.60;91.40;;;;;;5021453;28;20365;-80
2023/01/21 14:09:43;;;;;;;;;;;3.40;91.50;;;;;;5024093;28;19909;-80
2023/01/21 14:12:17;;;;;;;;;;;3.10;91.80;;;;;;5022350;28;19919;-77
2023/01/21 14:15:01;;;;;;;;;;;3.00;92.90;;;;;;5018166;28;19915;-79
2023/01/21 14:17:30;;;;;;;;;;;2.70;91.90;;;;;;5017506;28;19953;-79
2023/01/21 14:19:55;;;;;;;;;;;3.00;93.00;;;;;;5019844;28;19995;-78
2023/01/21 14:22:30;;;;;;;;;;;3.50;92.90;;;;;;5023214;28;20001;-78
2023/01/21 14:25:09;;;;;;;;;;;3.40;91.90;;;;;;5013076;28;20034;-80
2023/01/21 14:27:37;;;;;;;;;;;3.50;92.20;;;;;;5013035;28;20002;-80
2023/01/21 14:30:15;;;;;;;;;;;3.20;91.50;;;;;;5023819;28;19927;-81
2023/01/21 14:32:44;;;;;;;;;;;3.40;91.90;;;;;;5012537;28;19913;-79
2023/01/21 14:35:31;;;;;;;;;;;3.30;92.00;;;;;;5024266;28;20022;-81
2023/01/21 14:38:16;;;;;;;;;;;3.30;92.00;;;;;;5024538;28;19923;-79
2023/01/21 14:40:47;;;;;;;;;;;3.20;92.00;;;;;;5018954;28;19913;-83
2023/01/21 14:43:30;;;;;;;;;;;3.10;91.60;;;;;;5020800;28;19913;-79
2023/01/21 14:45:56;;;;;;;;;;;3.20;91.50;;;;;;5017757;28;19913;-78